Time;durP1;ratioP1;P1;durP2;ratioP2;P2;SDS_P1;SDS_P2;PMS_P1;PMS_P2;Temp;Humidity;BMP_temperature;BMP_pressure;BME280_temperature;BME280_humidity;BME280_pressure;Samples;Min_cycle;Max_cycle;Signal;HPM_P1;HPM_P2
2022/03/09 00:00:22;;;;;;;17.27;9.52;;;;;;;;;;5019579;28;20026;-82
2022/03/09 00:02:48;;;;;;;18.92;10.43;;;;;;;;;;5052472;28;20026;-82
2022/03/09 00:05:14;;;;;;;17.95;9.55;;;;;;;;;;5036972;28;20034;-82
2022/03/09 00:07:40;;;;;;;16.27;9.52;;;;;;;;;;5036354;28;20076;-82
2022/03/09 00:10:06;;;;;;;15.52;9.30;;;;;;;;;;5020734;28;20322;-82
2022/03/09 00:12:32;;;;;;;20.15;9.95;;;;;;;;;;5038061;28;20028;-82
2022/03/09 00:14:58;;;;;;;16.85;10.20;;;;;;;;;;5053166;28;20017;-82
2022/03/09 00:17:24;;;;;;;18.40;10.70;;;;;;;;;;5052254;28;20032;-82
2022/03/09 00:19:50;;;;;;;17.65;10.48;;;;;;;;;;5019093;28;20025;-81
2022/03/09 00:22:17;;;;;;;15.55;9.45;;;;;;;;;;5053147;28;20025;-82
2022/03/09 00:24:43;;;;;;;17.00;9.98;;;;;;;;;;5053197;28;20417;-82
2022/03/09 00:27:09;;;;;;;15.82;10.20;;;;;;;;;;5053217;28;20013;-81
2022/03/09 00:29:35;;;;;;;16.95;10.25;;;;;;;;;;5037549;28;20440;-82
2022/03/09 00:32:01;;;;;;;17.95;11.20;;;;;;;;;;5018957;28;20029;-81
2022/03/09 00:34:27;;;;;;;18.40;10.52;;;;;;;;;;5052245;28;20029;-82
2022/03/09 00:36:54;;;;;;;17.17;9.95;;;;;;;;;;5036543;28;20021;-82
2022/03/09 00:39:20;;;;;;;18.52;9.70;;;;;;;;;;5019776;28;20116;-82
2022/03/09 00:41:46;;;;;;;16.33;10.57;;;;;;;;;;5036884;28;20040;-82
2022/03/09 00:44:12;;;;;;;17.70;10.73;;;;;;;;;;5038682;28;20033;-82
2022/03/09 00:46:38;;;;;;;17.30;10.02;;;;;;;;;;5019101;28;20030;-81
2022/03/09 00:49:04;;;;;;;16.90;11.02;;;;;;;;;;5046934;28;20025;-81
2022/03/09 00:51:30;;;;;;;17.20;10.57;;;;;;;;;;5055469;28;20037;-82
2022/03/09 00:53:56;;;;;;;17.15;9.70;;;;;;;;;;5054125;28;20049;-81
2022/03/09 00:56:22;;;;;;;18.80;10.43;;;;;;;;;;5035847;28;20029;-82
2022/03/09 00:58:48;;;;;;;18.48;10.60;;;;;;;;;;5051391;28;20067;-81
2022/03/09 01:01:14;;;;;;;17.08;10.27;;;;;;;;;;5052041;28;20040;-82
2022/03/09 01:03:41;;;;;;;16.20;10.57;;;;;;;;;;5035708;28;20053;-82
2022/03/09 01:06:07;;;;;;;17.42;10.18;;;;;;;;;;5035685;28;20032;-82
2022/03/09 01:08:33;;;;;;;17.67;11.13;;;;;;;;;;5018758;28;20083;-82
2022/03/09 01:10:59;;;;;;;17.20;10.43;;;;;;;;;;5018108;28;20334;-82
2022/03/09 01:13:25;;;;;;;18.75;10.23;;;;;;;;;;5018240;28;20029;-81
2022/03/09 01:15:53;;;;;;;21.13;12.07;;;;;;;;;;5034769;28;20037;-82
2022/03/09 01:18:19;;;;;;;18.27;10.50;;;;;;;;;;5018417;28;20045;-81
2022/03/09 01:20:45;;;;;;;18.80;11.02;;;;;;;;;;5036050;28;20036;-82
2022/03/09 01:23:11;;;;;;;16.75;10.48;;;;;;;;;;5051372;28;20041;-82
2022/03/09 01:25:37;;;;;;;15.18;9.80;;;;;;;;;;5018089;28;20120;-82
2022/03/09 01:28:04;;;;;;;17.88;10.60;;;;;;;;;;5035443;28;20065;-82
2022/03/09 01:30:30;;;;;;;17.30;10.48;;;;;;;;;;5041432;28;20025;-81
2022/03/09 01:32:56;;;;;;;18.65;11.80;;;;;;;;;;5055753;28;20480;-82
2022/03/09 01:35:22;;;;;;;20.08;11.93;;;;;;;;;;5045786;28;20033;-82
2022/03/09 01:37:48;;;;;;;18.08;10.43;;;;;;;;;;5055117;28;20021;-82
2022/03/09 01:40:14;;;;;;;18.92;11.05;;;;;;;;;;5055021;28;20033;-82
2022/03/09 01:42:41;;;;;;;17.42;10.13;;;;;;;;;;5039434;28;20079;-82
2022/03/09 01:45:09;;;;;;;18.73;10.70;;;;;;;;;;5042794;28;20021;-82
2022/03/09 01:47:35;;;;;;;19.70;10.98;;;;;;;;;;5048041;28;20121;-82
2022/03/09 01:50:01;;;;;;;16.92;10.63;;;;;;;;;;5021660;28;20417;-82
2022/03/09 01:52:27;;;;;;;15.60;10.38;;;;;;;;;;5021394;28;20041;-82
2022/03/09 01:54:54;;;;;;;18.65;10.52;;;;;;;;;;5040161;28;20025;-81
2022/03/09 01:57:20;;;;;;;16.92;11.07;;;;;;;;;;5022731;28;20026;-82
2022/03/09 01:59:50;;;;;;;15.68;10.10;;;;;;;;;;5039431;28;20400;-82
2022/03/09 02:02:16;;;;;;;18.13;10.77;;;;;;;;;;5022435;28;20045;-82
2022/03/09 02:04:43;;;;;;;21.35;10.75;;;;;;;;;;5039420;28;20029;-81
2022/03/09 02:07:09;;;;;;;16.17;10.10;;;;;;;;;;5022636;28;20489;-82
2022/03/09 02:09:42;;;;;;;17.15;10.60;;;;;;;;;;5039529;28;20067;-82
2022/03/09 02:12:11;;;;;;;19.00;11.40;;;;;;;;;;5037946;28;20048;-82
2022/03/09 02:14:37;;;;;;;19.90;11.15;;;;;;;;;;5054178;28;20042;-82
2022/03/09 02:17:04;;;;;;;16.45;10.07;;;;;;;;;;5037420;28;20017;-82
2022/03/09 02:19:30;;;;;;;19.35;11.23;;;;;;;;;;5039784;28;20028;-82
2022/03/09 02:22:01;;;;;;;18.55;11.20;;;;;;;;;;5039388;28;21223;-82
2022/03/09 02:24:28;;;;;;;17.90;10.68;;;;;;;;;;5053436;28;20041;-82
2022/03/09 02:26:54;;;;;;;20.92;11.50;;;;;;;;;;5039866;28;20033;-82
2022/03/09 02:29:20;;;;;;;21.75;11.18;;;;;;;;;;5055303;28;20029;-82
2022/03/09 02:31:46;;;;;;;18.05;11.30;;;;;;;;;;5039541;28;20041;-82
2022/03/09 02:34:12;;;;;;;18.30;10.60;;;;;;;;;;5038954;28;20032;-81
2022/03/09 02:36:38;;;;;;;22.77;11.10;;;;;;;;;;5039061;28;20104;-82
2022/03/09 02:39:04;;;;;;;19.90;10.95;;;;;;;;;;5021933;28;20053;-82
2022/03/09 02:41:33;;;;;;;21.13;12.15;;;;;;;;;;5020590;28;20033;-82
2022/03/09 02:44:00;;;;;;;18.88;11.90;;;;;;;;;;5020821;28;20037;-82
2022/03/09 02:46:26;;;;;;;19.02;11.35;;;;;;;;;;5038980;28;20026;-82
2022/03/09 02:48:53;;;;;;;19.17;11.07;;;;;;;;;;5021025;28;20032;-81
2022/03/09 02:51:19;;;;;;;20.52;11.68;;;;;;;;;;5019948;28;20037;-81
2022/03/09 02:53:45;;;;;;;20.58;11.38;;;;;;;;;;5038151;28;20033;-81
2022/03/09 02:56:11;;;;;;;18.50;10.88;;;;;;;;;;5035446;28;20076;-82
2022/03/09 02:58:37;;;;;;;20.42;11.10;;;;;;;;;;5019556;28;20028;-82
2022/03/09 03:01:03;;;;;;;15.63;10.48;;;;;;;;;;5052985;28;20030;-82
2022/03/09 03:03:29;;;;;;;19.70;10.68;;;;;;;;;;5020666;28;20517;-82
2022/03/09 03:05:55;;;;;;;19.15;11.25;;;;;;;;;;5053746;28;20034;-81
2022/03/09 03:08:21;;;;;;;18.20;11.27;;;;;;;;;;5053286;28;20099;-81
2022/03/09 03:10:47;;;;;;;18.17;10.77;;;;;;;;;;5036410;28;20475;-81
2022/03/09 03:13:13;;;;;;;20.55;11.73;;;;;;;;;;5025479;28;20090;-82
2022/03/09 03:15:39;;;;;;;19.10;10.88;;;;;;;;;;5020424;28;20026;-82
2022/03/09 03:18:05;;;;;;;18.13;11.18;;;;;;;;;;5053123;28;20025;-82
2022/03/09 03:20:31;;;;;;;20.40;11.95;;;;;;;;;;5052774;28;20384;-82
2022/03/09 03:22:57;;;;;;;20.50;11.85;;;;;;;;;;5020511;28;20026;-82
2022/03/09 03:25:23;;;;;;;19.30;11.80;;;;;;;;;;5037547;28;20053;-81
2022/03/09 03:27:49;;;;;;;19.58;11.45;;;;;;;;;;5042800;28;20056;-80
2022/03/09 03:30:15;;;;;;;21.85;12.35;;;;;;;;;;5036015;28;20036;-81
2022/03/09 03:32:41;;;;;;;20.67;11.90;;;;;;;;;;5017711;28;20021;-80
2022/03/09 03:35:08;;;;;;;22.40;11.90;;;;;;;;;;5036293;28;20056;-80
2022/03/09 03:37:34;;;;;;;20.08;11.75;;;;;;;;;;5036645;28;20503;-80
2022/03/09 03:40:00;;;;;;;20.92;11.40;;;;;;;;;;5018569;28;20025;-80
2022/03/09 03:42:26;;;;;;;19.27;11.63;;;;;;;;;;5051551;28;20037;-81
2022/03/09 03:44:52;;;;;;;20.60;11.63;;;;;;;;;;5051781;28;20076;-80
2022/03/09 03:47:18;;;;;;;22.65;11.82;;;;;;;;;;5051402;28;20037;-80
2022/03/09 03:49:44;;;;;;;21.30;11.90;;;;;;;;;;5050810;28;20035;-81
2022/03/09 03:52:10;;;;;;;22.50;11.98;;;;;;;;;;5017072;28;20100;-80
2022/03/09 03:54:36;;;;;;;24.50;11.20;;;;;;;;;;5052470;28;20120;-80
2022/03/09 03:57:02;;;;;;;18.75;10.93;;;;;;;;;;5036750;28;20092;-80
2022/03/09 03:59:28;;;;;;;19.95;11.45;;;;;;;;;;5035225;28;20500;-81
2022/03/09 04:01:54;;;;;;;19.20;11.10;;;;;;;;;;5017623;28;20555;-81
2022/03/09 04:04:20;;;;;;;19.30;10.95;;;;;;;;;;5050786;28;20037;-81
2022/03/09 04:06:46;;;;;;;18.27;11.23;;;;;;;;;;5035079;28;20026;-81
2022/03/09 04:09:12;;;;;;;19.00;10.98;;;;;;;;;;5017658;28;20032;-81
2022/03/09 04:11:38;;;;;;;20.13;12.20;;;;;;;;;;5050642;28;20500;-81
2022/03/09 04:14:04;;;;;;;20.77;12.05;;;;;;;;;;5034982;28;20021;-81
2022/03/09 04:16:30;;;;;;;17.80;10.73;;;;;;;;;;5034939;28;20018;-81
2022/03/09 04:18:56;;;;;;;20.65;11.55;;;;;;;;;;5033224;28;20080;-81
2022/03/09 04:21:22;;;;;;;18.73;10.40;;;;;;;;;;5034977;28;20029;-81
2022/03/09 04:23:48;;;;;;;22.52;12.15;;;;;;;;;;5037060;28;20035;-81
2022/03/09 04:26:14;;;;;;;20.73;11.30;;;;;;;;;;5015843;28;20477;-81
2022/03/09 04:28:41;;;;;;;23.20;11.50;;;;;;;;;;5035017;28;20074;-81
2022/03/09 04:31:07;;;;;;;18.65;11.13;;;;;;;;;;5034117;28;20026;-80
2022/03/09 04:33:33;;;;;;;18.98;10.95;;;;;;;;;;5046722;28;20553;-81
2022/03/09 04:35:59;;;;;;;17.48;10.35;;;;;;;;;;5049108;28;20025;-81
2022/03/09 04:38:25;;;;;;;17.95;11.18;;;;;;;;;;5036907;28;20029;-80
2022/03/09 04:40:51;;;;;;;19.42;10.00;;;;;;;;;;5052813;28;20031;-81
2022/03/09 04:43:17;;;;;;;17.70;10.25;;;;;;;;;;5038888;28;20036;-80
2022/03/09 04:45:43;;;;;;;18.33;10.07;;;;;;;;;;5039625;28;20017;-81
2022/03/09 04:48:09;;;;;;;20.73;11.70;;;;;;;;;;5038314;28;20158;-81
2022/03/09 04:50:35;;;;;;;18.80;10.40;;;;;;;;;;5019902;28;20037;-80
2022/03/09 04:53:01;;;;;;;16.20;10.68;;;;;;;;;;5047845;28;20025;-81
2022/03/09 04:55:27;;;;;;;21.27;11.38;;;;;;;;;;5017544;28;20025;-81
2022/03/09 04:57:53;;;;;;;18.73;10.63;;;;;;;;;;5017147;28;20487;-81
2022/03/09 05:00:19;;;;;;;19.63;11.05;;;;;;;;;;5049899;28;20033;-80
2022/03/09 05:02:45;;;;;;;22.55;11.52;;;;;;;;;;5049825;28;20512;-80
2022/03/09 05:05:12;;;;;;;19.60;11.40;;;;;;;;;;5052256;28;20057;-81
2022/03/09 05:07:41;;;;;;;18.98;11.07;;;;;;;;;;5040989;28;20021;-81
2022/03/09 05:10:08;;;;;;;18.30;11.52;;;;;;;;;;5035072;28;20080;-81
2022/03/09 05:12:34;;;;;;;19.35;10.23;;;;;;;;;;5019091;28;20564;-81
2022/03/09 05:15:00;;;;;;;18.05;10.80;;;;;;;;;;5052328;28;20048;-79
2022/03/09 05:17:26;;;;;;;19.38;10.68;;;;;;;;;;5037261;28;20500;-79
2022/03/09 05:19:52;;;;;;;19.92;10.45;;;;;;;;;;5036752;28;20056;-81
2022/03/09 05:22:18;;;;;;;17.48;9.82;;;;;;;;;;5033150;28;20118;-79
2022/03/09 05:24:44;;;;;;;19.70;10.02;;;;;;;;;;5022591;28;20032;-80
2022/03/09 05:27:10;;;;;;;19.35;10.18;;;;;;;;;;5021205;28;20021;-80
2022/03/09 05:29:36;;;;;;;16.35;10.00;;;;;;;;;;5034153;28;20512;-79
2022/03/09 05:32:03;;;;;;;19.73;11.07;;;;;;;;;;5039633;28;20029;-79
2022/03/09 05:34:28;;;;;;;20.52;10.88;;;;;;;;;;5016542;28;20401;-80
2022/03/09 05:36:55;;;;;;;21.27;11.93;;;;;;;;;;5033152;28;20485;-79
2022/03/09 05:39:21;;;;;;;16.92;10.38;;;;;;;;;;5047800;28;20108;-79
2022/03/09 05:41:47;;;;;;;17.75;10.65;;;;;;;;;;5012968;28;20057;-79
2022/03/09 05:44:13;;;;;;;19.58;10.30;;;;;;;;;;5020207;28;20029;-79
2022/03/09 05:46:39;;;;;;;20.15;11.48;;;;;;;;;;5018011;28;20121;-79
2022/03/09 05:49:05;;;;;;;20.55;11.07;;;;;;;;;;5017563;28;20009;-79
2022/03/09 05:51:32;;;;;;;19.10;10.82;;;;;;;;;;5068731;22;20091;-79
2022/03/09 05:53:58;;;;;;;21.58;11.15;;;;;;;;;;5046310;28;20481;-79
2022/03/09 05:56:24;;;;;;;17.90;10.98;;;;;;;;;;5041786;28;20033;-79
2022/03/09 05:58:51;;;;;;;18.27;10.65;;;;;;;;;;5053434;28;20071;-79
2022/03/09 06:01:17;;;;;;;16.60;10.77;;;;;;;;;;5046873;28;20025;-81
2022/03/09 06:03:44;;;;;;;19.58;12.20;;;;;;;;;;5021434;28;20024;-80
2022/03/09 06:06:10;;;;;;;19.20;11.77;;;;;;;;;;5036064;28;20040;-80
2022/03/09 06:08:36;;;;;;;20.67;11.35;;;;;;;;;;5049580;28;20025;-79
2022/03/09 06:11:02;;;;;;;20.63;13.48;;;;;;;;;;5057856;28;20032;-80
2022/03/09 06:13:28;;;;;;;20.80;13.52;;;;;;;;;;5026649;28;20029;-80
2022/03/09 06:15:54;;;;;;;18.25;11.65;;;;;;;;;;5029535;28;20031;-80
2022/03/09 06:18:20;;;;;;;19.90;11.55;;;;;;;;;;5039548;28;20481;-80
2022/03/09 06:20:47;;;;;;;20.85;12.73;;;;;;;;;;5056579;28;20033;-79
2022/03/09 06:23:13;;;;;;;23.05;14.07;;;;;;;;;;5039192;28;20029;-79
2022/03/09 06:25:39;;;;;;;21.75;13.00;;;;;;;;;;5054897;28;20029;-79
2022/03/09 06:28:05;;;;;;;20.80;12.60;;;;;;;;;;5043472;28;20409;-80
2022/03/09 06:30:31;;;;;;;22.50;13.38;;;;;;;;;;5033761;28;20471;-79
2022/03/09 06:32:57;;;;;;;21.40;11.60;;;;;;;;;;5023778;28;20028;-80
2022/03/09 06:35:23;;;;;;;19.02;10.55;;;;;;;;;;5038974;28;20485;-80
2022/03/09 06:37:49;;;;;;;18.75;11.40;;;;;;;;;;5051729;28;20060;-79
2022/03/09 06:40:15;;;;;;;14.90;10.05;;;;;;;;;;5055840;28;20047;-79
2022/03/09 06:42:41;;;;;;;16.13;10.02;;;;;;;;;;5054228;28;20024;-80
2022/03/09 06:45:07;;;;;;;17.67;9.70;;;;;;;;;;5053147;28;20029;-80
2022/03/09 06:47:35;;;;;;;16.85;10.23;;;;;;;;;;5050027;28;20025;-79
2022/03/09 06:50:02;;;;;;;15.52;9.50;;;;;;;;;;5027288;28;20032;-80
2022/03/09 06:52:29;;;;;;;15.60;9.50;;;;;;;;;;5025639;28;20052;-80
2022/03/09 06:54:55;;;;;;;17.88;9.95;;;;;;;;;;5054981;28;20053;-79
2022/03/09 06:57:21;;;;;;;18.33;10.40;;;;;;;;;;5040985;28;20276;-79
2022/03/09 06:59:49;;;;;;;17.60;10.20;;;;;;;;;;5045610;28;20028;-80
2022/03/09 07:02:15;;;;;;;15.13;9.32;;;;;;;;;;5054862;28;20058;-79
2022/03/09 07:04:41;;;;;;;18.23;10.60;;;;;;;;;;5056024;28;20531;-80
2022/03/09 07:07:07;;;;;;;15.55;9.50;;;;;;;;;;5037585;28;20033;-79
2022/03/09 07:09:33;;;;;;;18.35;10.88;;;;;;;;;;5055577;28;20407;-80
2022/03/09 07:11:59;;;;;;;16.50;9.65;;;;;;;;;;5050813;28;20079;-79
2022/03/09 07:14:25;;;;;;;18.42;10.82;;;;;;;;;;5036154;28;20488;-80
2022/03/09 07:16:51;;;;;;;17.73;10.27;;;;;;;;;;5040830;28;20024;-80
2022/03/09 07:19:17;;;;;;;17.90;10.20;;;;;;;;;;5036870;28;20033;-81
2022/03/09 07:21:43;;;;;;;17.25;11.35;;;;;;;;;;5051104;28;20052;-79
2022/03/09 07:24:09;;;;;;;17.77;10.55;;;;;;;;;;5069453;28;20104;-80
2022/03/09 07:26:40;;;;;;;17.88;10.73;;;;;;;;;;5038837;28;20052;-80
2022/03/09 07:29:06;;;;;;;18.60;11.27;;;;;;;;;;5029553;28;20029;-80
2022/03/09 07:31:32;;;;;;;19.35;11.77;;;;;;;;;;5037068;28;20036;-80
2022/03/09 07:33:58;;;;;;;16.35;10.48;;;;;;;;;;5043144;28;20035;-79
2022/03/09 07:36:24;;;;;;;17.85;10.93;;;;;;;;;;5051957;28;20032;-80
2022/03/09 07:38:50;;;;;;;15.77;10.15;;;;;;;;;;5045770;28;20025;-80
2022/03/09 07:41:16;;;;;;;18.30;10.05;;;;;;;;;;5052152;28;20535;-80
2022/03/09 07:43:42;;;;;;;17.88;10.75;;;;;;;;;;5056799;28;20029;-80
2022/03/09 07:46:09;;;;;;;15.57;9.60;;;;;;;;;;5064990;28;20021;-82
2022/03/09 07:48:35;;;;;;;16.38;10.07;;;;;;;;;;5037162;28;20404;-80
2022/03/09 07:51:01;;;;;;;15.32;9.35;;;;;;;;;;5027657;28;20028;-79
2022/03/09 07:53:27;;;;;;;15.70;9.48;;;;;;;;;;5036370;28;20530;-79
2022/03/09 07:55:53;;;;;;;17.63;9.77;;;;;;;;;;5059847;28;20032;-79
2022/03/09 07:58:19;;;;;;;15.10;9.57;;;;;;;;;;5057482;28;20025;-79
2022/03/09 08:00:45;;;;;;;17.05;10.38;;;;;;;;;;5045864;28;20025;-80
2022/03/09 08:03:11;;;;;;;17.73;9.55;;;;;;;;;;5042593;28;20087;-79
2022/03/09 08:05:37;;;;;;;18.58;10.40;;;;;;;;;;5057878;28;20144;-79
2022/03/09 08:08:04;;;;;;;16.38;10.93;;;;;;;;;;5054673;28;20025;-79
2022/03/09 08:10:30;;;;;;;16.17;10.20;;;;;;;;;;5050025;28;20041;-79
2022/03/09 08:12:56;;;;;;;17.05;10.00;;;;;;;;;;5041187;28;20063;-79
2022/03/09 08:15:22;;;;;;;17.90;11.18;;;;;;;;;;5037302;28;20028;-79
2022/03/09 08:17:48;;;;;;;16.25;10.02;;;;;;;;;;5056639;28;20027;-80
2022/03/09 08:20:14;;;;;;;17.52;10.27;;;;;;;;;;5034199;28;20024;-80
2022/03/09 08:22:41;;;;;;;18.10;10.60;;;;;;;;;;5054360;28;20032;-80
2022/03/09 08:25:08;;;;;;;17.23;10.88;;;;;;;;;;5055942;28;20527;-80
2022/03/09 08:27:34;;;;;;;16.58;10.48;;;;;;;;;;5055451;28;20040;-80
2022/03/09 08:30:00;;;;;;;17.45;10.55;;;;;;;;;;5036308;28;20027;-80
2022/03/09 08:32:26;;;;;;;15.45;9.98;;;;;;;;;;5052952;28;20488;-80
2022/03/09 08:34:54;;;;;;;18.35;11.80;;;;;;;;;;5048447;28;20032;-80
2022/03/09 08:37:20;;;;;;;17.55;10.48;;;;;;;;;;5039208;28;20025;-80
2022/03/09 08:39:48;;;;;;;15.50;10.15;;;;;;;;;;5034753;28;20029;-81
2022/03/09 08:42:14;;;;;;;14.98;10.10;;;;;;;;;;5070356;28;20492;-80
2022/03/09 08:44:41;;;;;;;15.57;10.43;;;;;;;;;;5057220;28;20037;-81
2022/03/09 08:47:07;;;;;;;15.10;9.90;;;;;;;;;;5053056;28;20028;-80
2022/03/09 08:49:33;;;;;;;15.00;9.90;;;;;;;;;;5037820;28;20075;-80
2022/03/09 08:51:59;;;;;;;17.77;11.07;;;;;;;;;;5037814;28;20055;-80
2022/03/09 08:54:25;;;;;;;16.42;10.85;;;;;;;;;;5037510;28;20029;-80
2022/03/09 08:56:52;;;;;;;14.13;10.05;;;;;;;;;;5049296;28;20074;-80
2022/03/09 08:59:25;;;;;;;22.08;12.32;;;;;;;;;;5060467;28;20079;-79
2022/03/09 09:01:51;;;;;;;17.90;10.48;;;;;;;;;;5036110;28;20033;-80
2022/03/09 09:04:17;;;;;;;14.18;9.98;;;;;;;;;;5033381;28;20072;-81
2022/03/09 09:06:46;;;;;;;16.05;10.25;;;;;;;;;;5039556;28;20040;-79
2022/03/09 09:09:14;;;;;;;15.45;9.30;;;;;;;;;;5070049;28;20032;-81
2022/03/09 09:11:40;;;;;;;14.38;9.60;;;;;;;;;;5048751;28;20020;-80
2022/03/09 09:14:06;;;;;;;13.63;9.07;;;;;;;;;;5038624;28;20032;-81
2022/03/09 09:16:32;;;;;;;14.25;10.00;;;;;;;;;;5038548;28;20100;-80
2022/03/09 09:18:58;;;;;;;14.18;9.10;;;;;;;;;;5018413;28;20500;-80
2022/03/09 09:21:24;;;;;;;14.15;8.90;;;;;;;;;;5048699;28;20035;-80
2022/03/09 09:23:50;;;;;;;12.68;8.65;;;;;;;;;;5040953;28;20025;-80
2022/03/09 09:26:18;;;;;;;13.30;7.78;;;;;;;;;;5040004;28;20025;-80
2022/03/09 09:28:44;;;;;;;13.00;8.93;;;;;;;;;;5030799;28;20045;-80
2022/03/09 09:31:10;;;;;;;13.63;9.50;;;;;;;;;;5048746;28;20092;-81
2022/03/09 09:33:36;;;;;;;11.50;8.23;;;;;;;;;;5044406;28;20501;-81
2022/03/09 09:36:03;;;;;;;14.77;9.18;;;;;;;;;;5039062;28;20029;-80
2022/03/09 09:38:29;;;;;;;13.55;8.75;;;;;;;;;;5032857;28;20021;-80
2022/03/09 09:40:56;;;;;;;14.02;8.18;;;;;;;;;;5035550;28;20028;-81
2022/03/09 09:43:23;;;;;;;12.85;8.55;;;;;;;;;;5037982;28;20496;-80
2022/03/09 09:45:49;;;;;;;13.38;8.30;;;;;;;;;;5030568;28;20132;-80
2022/03/09 09:48:17;;;;;;;14.15;8.88;;;;;;;;;;5036864;28;20021;-81
2022/03/09 09:50:44;;;;;;;15.32;9.00;;;;;;;;;;5028441;28;20045;-81
2022/03/09 09:53:11;;;;;;;13.45;8.20;;;;;;;;;;5038744;28;20629;-81
2022/03/09 09:55:38;;;;;;;13.55;7.95;;;;;;;;;;5035611;28;20047;-80
2022/03/09 09:58:05;;;;;;;15.48;9.43;;;;;;;;;;5028644;28;20021;-81
2022/03/09 10:00:31;;;;;;;16.35;9.77;;;;;;;;;;5030226;28;20113;-81
2022/03/09 10:02:58;;;;;;;14.20;8.82;;;;;;;;;;5041366;28;20496;-81
2022/03/09 10:05:25;;;;;;;13.18;8.35;;;;;;;;;;5055413;28;20021;-81
2022/03/09 10:08:14;;;;;;;13.95;9.18;;;;;;;;;;5034774;28;20034;-81
2022/03/09 10:10:40;;;;;;;12.00;8.15;;;;;;;;;;5031424;28;20025;-82
2022/03/09 10:13:10;;;;;;;11.70;8.77;;;;;;;;;;5040417;28;20576;-81
2022/03/09 10:15:36;;;;;;;13.35;8.63;;;;;;;;;;5032285;28;20021;-81
2022/03/09 10:18:21;;;;;;;14.55;9.27;;;;;;;;;;5061565;28;20033;-82
2022/03/09 10:20:48;;;;;;;13.90;9.30;;;;;;;;;;5044289;28;20033;-82
2022/03/09 10:23:15;;;;;;;15.18;9.02;;;;;;;;;;5041838;28;20060;-81
2022/03/09 10:25:42;;;;;;;14.35;9.45;;;;;;;;;;5036858;28;20408;-82
2022/03/09 10:28:09;;;;;;;16.50;10.38;;;;;;;;;;5022478;28;20037;-82
2022/03/09 10:30:36;;;;;;;14.85;8.80;;;;;;;;;;5036706;28;20036;-81
2022/03/09 10:33:07;;;;;;;13.93;8.70;;;;;;;;;;5042329;28;20073;-80
2022/03/09 10:35:33;;;;;;;13.23;8.70;;;;;;;;;;5060812;28;20419;-82
2022/03/09 10:38:04;;;;;;;15.55;8.35;;;;;;;;;;5061947;28;20074;-81
2022/03/09 10:40:31;;;;;;;12.50;8.25;;;;;;;;;;5040194;28;20480;-82
2022/03/09 10:43:10;;;;;;;16.20;8.13;;;;;;;;;;5060304;28;20562;-81
2022/03/09 10:45:36;;;;;;;13.73;8.27;;;;;;;;;;5062798;28;20029;-82
2022/03/09 10:48:04;;;;;;;12.85;8.25;;;;;;;;;;5060871;28;20025;-81
2022/03/09 10:50:30;;;;;;;14.07;8.43;;;;;;;;;;5040040;28;20029;-80
2022/03/09 10:52:57;;;;;;;11.63;7.60;;;;;;;;;;5043004;28;20025;-80
2022/03/09 10:55:27;;;;;;;8.90;6.28;;;;;;;;;;5044666;28;20112;-81
2022/03/09 10:58:12;;;;;;;11.80;6.32;;;;;;;;;;5042478;28;20025;-81
2022/03/09 11:00:43;;;;;;;10.13;6.78;;;;;;;;;;5040208;28;20115;-82
2022/03/09 11:03:19;;;;;;;9.90;7.00;;;;;;;;;;5042332;28;20116;-81
2022/03/09 11:05:48;;;;;;;12.23;6.75;;;;;;;;;;5060810;28;20112;-81
2022/03/09 11:08:15;;;;;;;11.25;6.72;;;;;;;;;;5041977;28;20059;-80
2022/03/09 11:10:41;;;;;;;9.85;6.07;;;;;;;;;;5059810;28;20089;-81
2022/03/09 11:13:07;;;;;;;9.90;6.35;;;;;;;;;;5040860;28;20602;-82
2022/03/09 11:15:33;;;;;;;12.93;7.50;;;;;;;;;;5042486;28;20029;-80
2022/03/09 11:17:59;;;;;;;11.45;7.05;;;;;;;;;;5042301;28;20051;-80
2022/03/09 11:20:25;;;;;;;10.27;6.97;;;;;;;;;;5040233;28;20021;-81
2022/03/09 11:22:51;;;;;;;10.55;7.10;;;;;;;;;;5057841;28;20039;-81
2022/03/09 11:25:21;;;;;;;12.25;7.47;;;;;;;;;;5049813;28;20132;-81
2022/03/09 11:27:49;;;;;;;17.05;8.18;;;;;;;;;;5046887;28;20032;-81
2022/03/09 11:30:22;;;;;;;13.60;8.02;;;;;;;;;;5044032;28;20021;-83
2022/03/09 11:32:50;;;;;;;11.38;7.50;;;;;;;;;;5039093;28;20033;-82
2022/03/09 11:35:31;;;;;;;10.45;7.28;;;;;;;;;;5042893;28;20036;-83
2022/03/09 11:37:57;;;;;;;10.38;6.55;;;;;;;;;;5022466;28;20091;-81
2022/03/09 11:40:23;;;;;;;11.98;7.30;;;;;;;;;;5034784;28;20029;-81
2022/03/09 11:42:49;;;;;;;10.15;6.88;;;;;;;;;;5059054;28;20563;-82
2022/03/09 11:45:16;;;;;;;10.85;6.95;;;;;;;;;;5061323;28;20042;-81
2022/03/09 11:47:54;;;;;;;11.02;7.60;;;;;;;;;;5040762;28;20423;-80
2022/03/09 11:50:20;;;;;;;11.25;7.93;;;;;;;;;;5041373;28;20464;-81
2022/03/09 11:52:58;;;;;;;10.45;7.57;;;;;;;;;;5073357;28;20025;-81
2022/03/09 11:55:24;;;;;;;12.73;7.22;;;;;;;;;;5059040;28;20025;-81
2022/03/09 11:57:51;;;;;;;13.43;7.60;;;;;;;;;;5040545;28;20017;-82
2022/03/09 12:00:20;;;;;;;10.63;7.22;;;;;;;;;;5039197;28;20017;-82
2022/03/09 12:02:57;;;;;;;11.93;7.22;;;;;;;;;;5057354;28;20051;-81
2022/03/09 12:05:28;;;;;;;9.82;6.22;;;;;;;;;;5053375;28;20036;-80
2022/03/09 12:07:54;;;;;;;10.38;6.85;;;;;;;;;;5055289;28;20029;-82
2022/03/09 12:10:24;;;;;;;11.40;7.85;;;;;;;;;;5035212;28;20396;-81
2022/03/09 12:13:17;;;;;;;13.38;7.68;;;;;;;;;;5036280;28;20025;-81
2022/03/09 12:16:04;;;;;;;9.70;6.70;;;;;;;;;;5019853;28;20061;-81
2022/03/09 12:18:39;;;;;;;11.60;7.07;;;;;;;;;;5033867;28;20029;-81
2022/03/09 12:21:06;;;;;;;6.53;3.88;;;;;;;;;;5044775;28;20032;-82
2022/03/09 12:23:33;;;;;;;5.32;2.90;;;;;;;;;;5033329;28;20033;-80
2022/03/09 12:25:59;;;;;;;6.85;3.90;;;;;;;;;;5040754;28;20154;-81
2022/03/09 12:28:25;;;;;;;6.03;3.65;;;;;;;;;;5059266;28;20036;-82
2022/03/09 12:30:56;;;;;;;8.27;4.43;;;;;;;;;;5043721;28;20025;-81
2022/03/09 12:33:24;;;;;;;7.28;3.92;;;;;;;;;;5040921;28;20033;-82
2022/03/09 12:35:50;;;;;;;6.45;4.25;;;;;;;;;;5039371;28;20052;-80
2022/03/09 12:38:16;;;;;;;6.78;4.25;;;;;;;;;;5057007;28;20044;-80
2022/03/09 12:40:45;;;;;;;6.45;3.83;;;;;;;;;;5056415;28;20025;-81
2022/03/09 12:43:11;;;;;;;7.13;4.10;;;;;;;;;;5038440;28;20029;-81
2022/03/09 12:45:53;;;;;;;6.80;4.43;;;;;;;;;;5056488;28;20093;-81
2022/03/09 12:48:20;;;;;;;7.35;4.40;;;;;;;;;;5038009;28;20032;-81
2022/03/09 12:50:46;;;;;;;7.03;4.32;;;;;;;;;;5058584;28;20451;-81
2022/03/09 12:53:15;;;;;;;10.43;5.68;;;;;;;;;;5039658;28;20029;-80
2022/03/09 12:55:41;;;;;;;8.55;4.82;;;;;;;;;;5056990;28;20122;-80
2022/03/09 12:58:07;;;;;;;7.68;5.32;;;;;;;;;;5047709;28;20187;-80
2022/03/09 13:00:35;;;;;;;7.95;5.47;;;;;;;;;;5043823;28;20503;-81
2022/03/09 13:03:01;;;;;;;7.13;4.90;;;;;;;;;;5065932;28;20264;-81
2022/03/09 13:05:29;;;;;;;7.30;5.10;;;;;;;;;;5066339;28;20761;-81
2022/03/09 13:08:05;;;;;;;8.15;4.70;;;;;;;;;;5063118;28;20056;-81
2022/03/09 13:10:52;;;;;;;7.13;5.13;;;;;;;;;;5048020;28;20029;-81
2022/03/09 13:13:18;;;;;;;8.82;5.78;;;;;;;;;;5063922;28;20046;-81
2022/03/09 13:15:48;;;;;;;8.52;5.38;;;;;;;;;;5065913;28;20025;-81
2022/03/09 13:18:15;;;;;;;8.38;4.75;;;;;;;;;;5062685;28;20029;-83
2022/03/09 13:20:42;;;;;;;8.77;4.78;;;;;;;;;;5041811;28;20424;-80
2022/03/09 13:23:27;;;;;;;8.40;6.63;;;;;;;;;;5042411;28;20116;-81
2022/03/09 13:25:53;;;;;;;7.93;5.22;;;;;;;;;;5040603;28;20025;-81
2022/03/09 13:28:28;;;;;;;8.32;5.03;;;;;;;;;;5043607;28;20139;-81
2022/03/09 13:30:54;;;;;;;7.75;4.60;;;;;;;;;;5050793;28;20044;-80
2022/03/09 13:33:22;;;;;;;9.38;5.22;;;;;;;;;;5047515;28;20021;-80
2022/03/09 13:35:49;;;;;;;10.45;5.95;;;;;;;;;;5046725;28;20025;-81
2022/03/09 13:38:21;;;;;;;7.97;5.80;;;;;;;;;;5051587;28;20005;-81
2022/03/09 13:40:47;;;;;;;11.40;5.45;;;;;;;;;;5057626;28;20093;-83
2022/03/09 13:43:13;;;;;;;11.00;5.53;;;;;;;;;;5041024;28;20086;-80
2022/03/09 13:45:41;;;;;;;7.80;4.93;;;;;;;;;;5045936;28;20043;-82
2022/03/09 13:48:08;;;;;;;10.88;6.13;;;;;;;;;;5052361;28;20025;-81
2022/03/09 13:50:48;;;;;;;8.32;5.00;;;;;;;;;;5061138;28;20029;-83
2022/03/09 13:53:14;;;;;;;8.57;5.80;;;;;;;;;;5060762;28;20403;-81
2022/03/09 13:55:50;;;;;;;8.70;5.88;;;;;;;;;;5047586;28;20088;-81
2022/03/09 13:58:18;;;;;;;7.30;5.15;;;;;;;;;;5062406;28;20082;-81
2022/03/09 14:00:45;;;;;;;7.13;5.07;;;;;;;;;;5062169;28;20461;-81
2022/03/09 14:03:19;;;;;;;8.82;5.45;;;;;;;;;;5044561;28;20029;-81
2022/03/09 14:05:52;;;;;;;8.43;5.40;;;;;;;;;;5054142;28;20032;-81
2022/03/09 14:08:34;;;;;;;9.05;5.72;;;;;;;;;;5049595;28;20021;-80
2022/03/09 14:11:08;;;;;;;7.10;5.13;;;;;;;;;;5061280;28;20073;-80
2022/03/09 14:13:34;;;;;;;7.88;5.57;;;;;;;;;;5044599;28;20034;-80
2022/03/09 14:16:01;;;;;;;7.97;5.63;;;;;;;;;;5055574;28;20767;-81
2022/03/09 14:18:27;;;;;;;9.00;5.40;;;;;;;;;;5045113;28;20043;-81
2022/03/09 14:20:53;;;;;;;9.88;5.60;;;;;;;;;;5052494;28;20029;-81
2022/03/09 14:23:19;;;;;;;7.60;5.20;;;;;;;;;;5035456;28;20029;-82